This is the latest recevied weather packets stored in our database for station/object SQ9CIE-4. If no packets are shown the sender has not sent any weather packets the latest 1 day(s).
| Time | Temp. | Humidity | Pressure | Rain* | Wind** | Luminosity | Snow |
|---|---|---|---|---|---|---|---|
| 1836274569 | 13.89° C | 98% | 1024.6 hPa | 0 mm | 0 m/s | 0 W/m² | - |
| 1836274419 | 14.44° C | 98% | 1024.6 hPa | 0 mm | 0 m/s | 0 W/m² | - |
| 1836274269 | 13.89° C | 98% | 1024.6 hPa | 0 mm | 0 m/s | 0 W/m² | - |
| 1836274119 | 14.44° C | 98% | 1024.6 hPa | 0 mm | 0 m/s | 0 W/m² | - |
| 1836273969 | 13.89° C | 98% | 1024.6 hPa | 0 mm | 0 m/s | 0 W/m² | - |
| 1778019358 | 16.11° C | 50% | 1006.6 hPa | 0 mm | 0.89 m/s, 172° | 0 W/m² | - |
| 1778019058 | 16.11° C | 49% | 1006.4 hPa | 0 mm | 0 m/s | 0 W/m² | - |
| 1778018758 | 16.11° C | 49% | 1006.5 hPa | 0 mm | 0.45 m/s, 204° | 0 W/m² | - |
| 1778018458 | 16.11° C | 48% | 1006.5 hPa | 0 mm | 0.45 m/s, 216° | 0 W/m² | - |
| 1778018158 | 17.22° C | 47% | 1006.6 hPa | 0 mm | 0.89 m/s, 221° | 0 W/m² | - |
| 1778017858 | 17.22° C | 46% | 1006.6 hPa | 0 mm | 1.34 m/s, 225° | 0 W/m² | - |
| 1778017558 | 17.22° C | 45% | 1006.6 hPa | 0 mm | 0.89 m/s, 215° | 0 W/m² | - |
| 1778017258 | 17.22° C | 45% | 1006.7 hPa | 0 mm | 1.79 m/s, 175° | 0 W/m² | - |
| 1778016958 | 17.22° C | 45% | 1006.4 hPa | 0 mm | 1.79 m/s, 149° | 0 W/m² | - |
| 1778016358 | 17.22° C | 44% | 1006.4 hPa | 0 mm | 0.89 m/s, 169° | 0 W/m² | - |
| 1778016065 | 17.22° C | 44% | 1006.7 hPa | 0 mm | 0 m/s | 0 W/m² | - |
| 1778015758 | 17.22° C | 43% | 1006.7 hPa | 0 mm | 0 m/s | 0 W/m² | - |
| 1778015458 | 17.22° C | 43% | 1006.4 hPa | 0 mm | 1.34 m/s, 142° | 0 W/m² | - |
| 1778015158 | 17.22° C | 42% | 1006.5 hPa | 0 mm | 0.45 m/s, 142° | 0 W/m² | - |
| 1778014858 | 17.22° C | 42% | 1006.6 hPa | 0 mm | 0 m/s | 0 W/m² | - |
| 1778014558 | 17.22° C | 42% | 1006.6 hPa | 0 mm | 0.45 m/s, 142° | 0 W/m² | - |
| 1778014258 | 17.22° C | 42% | 1006.9 hPa | 0 mm | 0.45 m/s, 142° | 0 W/m² | - |
| 1778013958 | 17.22° C | 42% | 1006.6 hPa | 0 mm | 0.89 m/s, 142° | 0 W/m² | - |
| 1778013658 | 17.22° C | 41% | 1006.6 hPa | 0 mm | 0.45 m/s, 142° | 0 W/m² | - |
| 1778013358 | 17.22° C | 41% | 1006.6 hPa | 0 mm | 0.45 m/s, 143° | 0 W/m² | - |
* Rain latest hour (hover to see other rain measurements)
** Current wind speed in m/s (hover to see current wind gust speed)